Time;durP1;ratioP1;P1;durP2;ratioP2;P2;SDS_P1;SDS_P2;PMS_P1;PMS_P2;Temp;Humidity;BMP_temperature;BMP_pressure;BME280_temperature;BME280_humidity;BME280_pressure;Samples;Min_cycle;Max_cycle;Signal;HPM_P1;HPM_P2
2023/09/03 00:01:32;;;;;;;;;;;25.10;70.50;;;;;;5076616;28;20693;-34
2023/09/03 00:03:58;;;;;;;;;;;25.10;70.40;;;;;;5069321;28;19921;-34
2023/09/03 00:06:24;;;;;;;;;;;25.10;70.40;;;;;;5066427;28;19987;-34
2023/09/03 00:08:50;;;;;;;;;;;25.10;70.50;;;;;;5066787;28;19912;-34
2023/09/03 00:11:16;;;;;;;;;;;25.10;70.50;;;;;;5074564;28;19935;-34
2023/09/03 00:13:43;;;;;;;;;;;25.10;70.40;;;;;;5073808;28;19947;-34
2023/09/03 00:16:09;;;;;;;;;;;25.10;70.40;;;;;;5071851;28;19908;-34
2023/09/03 00:18:36;;;;;;;;;;;25.10;70.40;;;;;;5073717;28;19970;-34
2023/09/03 00:21:02;;;;;;;;;;;25.10;70.80;;;;;;5073564;28;19908;-34
2023/09/03 00:23:28;;;;;;;;;;;25.10;71.10;;;;;;5066955;28;19920;-34
2023/09/03 00:25:57;;;;;;;;;;;25.10;71.10;;;;;;5066951;28;19959;-34
2023/09/03 00:28:23;;;;;;;;;;;25.10;71.20;;;;;;5070238;28;20352;-34
2023/09/03 00:31:05;;;;;;;;;;;25.10;71.30;;;;;;5070265;28;19915;-34
2023/09/03 00:33:31;;;;;;;;;;;25.10;71.30;;;;;;5073773;28;19909;-34
2023/09/03 00:35:58;;;;;;;;;;;25.10;71.20;;;;;;5065461;28;19959;-35
2023/09/03 00:38:24;;;;;;;;;;;25.00;71.20;;;;;;5066806;28;19931;-34
2023/09/03 00:40:50;;;;;;;;;;;25.00;71.20;;;;;;5066817;28;19913;-35
2023/09/03 00:43:16;;;;;;;;;;;25.00;71.20;;;;;;5080472;28;19920;-35
2023/09/03 00:45:42;;;;;;;;;;;25.00;71.30;;;;;;5071131;28;19923;-34
2023/09/03 00:48:09;;;;;;;;;;;25.00;71.30;;;;;;5075893;28;19913;-34
2023/09/03 00:50:34;;;;;;;;;;;25.00;71.20;;;;;;5058866;28;20445;-34
2023/09/03 00:53:00;;;;;;;;;;;25.00;71.20;;;;;;5049188;28;19909;-34
2023/09/03 00:55:26;;;;;;;;;;;25.00;71.30;;;;;;5068300;28;20393;-34
2023/09/03 00:57:52;;;;;;;;;;;25.00;71.30;;;;;;5071173;28;19949;-33
2023/09/03 01:00:18;;;;;;;;;;;25.00;71.40;;;;;;5073771;28;19909;-33
2023/09/03 01:02:44;;;;;;;;;;;25.00;71.30;;;;;;5076575;28;19935;-33
2023/09/03 01:05:10;;;;;;;;;;;25.00;71.10;;;;;;5075266;28;19920;-33
2023/09/03 01:07:36;;;;;;;;;;;25.00;71.30;;;;;;5065265;28;19908;-34
2023/09/03 01:10:02;;;;;;;;;;;25.00;71.30;;;;;;5066577;28;19927;-33
2023/09/03 01:12:30;;;;;;;;;;;25.00;71.40;;;;;;5065855;28;19909;-33
2023/09/03 01:15:00;;;;;;;;;;;25.00;71.30;;;;;;5046963;28;19916;-33
2023/09/03 01:17:37;;;;;;;;;;;25.00;71.30;;;;;;5072452;28;19916;-34
2023/09/03 01:20:23;;;;;;;;;;;25.00;71.30;;;;;;5061962;28;19912;-34
2023/09/03 01:23:07;;;;;;;;;;;24.90;71.20;;;;;;5059356;28;19913;-34
2023/09/03 01:25:33;;;;;;;;;;;25.00;71.40;;;;;;5065742;28;19935;-33
2023/09/03 01:28:18;;;;;;;;;;;24.90;71.40;;;;;;5065583;28;20409;-34
2023/09/03 01:30:43;;;;;;;;;;;24.90;71.30;;;;;;5058804;28;19912;-34
2023/09/03 01:33:09;;;;;;;;;;;24.90;71.20;;;;;;5079169;28;19915;-34
2023/09/03 01:35:36;;;;;;;;;;;24.90;71.20;;;;;;5072396;28;19913;-34
2023/09/03 01:38:02;;;;;;;;;;;24.90;71.20;;;;;;5065751;28;19916;-34
2023/09/03 01:40:28;;;;;;;;;;;24.90;71.20;;;;;;5074623;28;19934;-34
2023/09/03 01:42:53;;;;;;;;;;;24.90;71.20;;;;;;5075416;28;19957;-34
2023/09/03 01:45:19;;;;;;;;;;;24.90;71.20;;;;;;5067852;28;19924;-34
2023/09/03 01:47:49;;;;;;;;;;;24.90;71.20;;;;;;5047567;28;19970;-34
2023/09/03 01:50:20;;;;;;;;;;;24.90;71.30;;;;;;5072700;28;20368;-34
2023/09/03 01:52:49;;;;;;;;;;;24.90;71.40;;;;;;5065150;28;19912;-34
2023/09/03 01:55:15;;;;;;;;;;;24.80;71.30;;;;;;5053313;28;19909;-34
2023/09/03 01:57:46;;;;;;;;;;;24.80;71.40;;;;;;5064554;28;19913;-34
2023/09/03 02:00:13;;;;;;;;;;;24.80;71.50;;;;;;5047425;28;19913;-33
2023/09/03 02:02:39;;;;;;;;;;;24.80;71.50;;;;;;5040342;28;19935;-34
2023/09/03 02:05:06;;;;;;;;;;;24.80;71.40;;;;;;5072128;28;20007;-35
2023/09/03 02:07:32;;;;;;;;;;;24.80;71.60;;;;;;5055364;28;19913;-34
2023/09/03 02:09:58;;;;;;;;;;;24.80;71.30;;;;;;5074088;28;20406;-34
2023/09/03 02:12:24;;;;;;;;;;;24.80;71.20;;;;;;5073554;28;20013;-34
2023/09/03 02:14:50;;;;;;;;;;;24.80;71.20;;;;;;5070096;28;19920;-34
2023/09/03 02:17:20;;;;;;;;;;;24.80;71.20;;;;;;5070295;28;20357;-35
2023/09/03 02:19:48;;;;;;;;;;;24.80;71.10;;;;;;5071498;28;19909;-34
2023/09/03 02:22:13;;;;;;;;;;;24.80;71.10;;;;;;5064902;28;20522;-34
2023/09/03 02:24:39;;;;;;;;;;;24.70;70.80;;;;;;5071351;28;19916;-34
2023/09/03 02:27:05;;;;;;;;;;;24.70;70.90;;;;;;5078484;28;19912;-34
2023/09/03 02:29:31;;;;;;;;;;;24.70;71.10;;;;;;5071904;28;19909;-34
2023/09/03 02:31:57;;;;;;;;;;;24.70;71.20;;;;;;5063269;28;19913;-34
2023/09/03 02:34:23;;;;;;;;;;;24.70;71.30;;;;;;5046861;28;19909;-34
2023/09/03 02:36:49;;;;;;;;;;;24.70;71.40;;;;;;5064374;28;19917;-34
2023/09/03 02:39:15;;;;;;;;;;;24.70;71.50;;;;;;5071783;28;20368;-33
2023/09/03 02:41:41;;;;;;;;;;;24.70;71.40;;;;;;5071222;28;19908;-34
2023/09/03 02:44:07;;;;;;;;;;;24.70;71.50;;;;;;5060583;28;19920;-33
2023/09/03 02:46:33;;;;;;;;;;;24.70;71.50;;;;;;5064654;28;19976;-34
2023/09/03 02:48:58;;;;;;;;;;;24.60;71.50;;;;;;5074414;28;19965;-34
2023/09/03 02:51:25;;;;;;;;;;;24.60;71.30;;;;;;5062979;28;19909;-34
2023/09/03 02:53:51;;;;;;;;;;;24.60;71.30;;;;;;5069071;28;20368;-34
2023/09/03 02:56:17;;;;;;;;;;;24.60;71.20;;;;;;5073761;28;19912;-34
2023/09/03 02:58:45;;;;;;;;;;;24.60;71.20;;;;;;5074706;28;19913;-34
2023/09/03 03:01:12;;;;;;;;;;;24.60;71.20;;;;;;5056296;28;20010;-34
2023/09/03 03:03:38;;;;;;;;;;;24.60;71.10;;;;;;5045873;28;19939;-33
2023/09/03 03:06:04;;;;;;;;;;;24.60;71.10;;;;;;5071109;28;19905;-34
2023/09/03 03:08:30;;;;;;;;;;;24.60;71.30;;;;;;5063070;28;19939;-34
2023/09/03 03:11:08;;;;;;;;;;;24.60;71.20;;;;;;5064612;28;19934;-34
2023/09/03 03:13:35;;;;;;;;;;;24.60;71.20;;;;;;5079657;28;19930;-34
2023/09/03 03:16:07;;;;;;;;;;;24.50;71.10;;;;;;5069009;28;19908;-34
2023/09/03 03:18:36;;;;;;;;;;;24.50;71.20;;;;;;5068781;28;19920;-34
2023/09/03 03:21:09;;;;;;;;;;;24.50;71.20;;;;;;5077411;28;19913;-33
2023/09/03 03:23:35;;;;;;;;;;;24.50;71.40;;;;;;5066738;28;19920;-34
2023/09/03 03:26:01;;;;;;;;;;;24.50;71.30;;;;;;5074215;28;20677;-33
2023/09/03 03:28:28;;;;;;;;;;;24.50;71.30;;;;;;5079049;28;19947;-33
2023/09/03 03:30:54;;;;;;;;;;;24.50;71.40;;;;;;5081978;28;19960;-34
2023/09/03 03:33:19;;;;;;;;;;;24.50;71.50;;;;;;5076668;28;19950;-33
2023/09/03 03:35:45;;;;;;;;;;;24.50;71.50;;;;;;5074733;28;19908;-34
2023/09/03 03:38:11;;;;;;;;;;;24.50;71.50;;;;;;5067202;28;19936;-34
2023/09/03 03:40:37;;;;;;;;;;;24.40;71.40;;;;;;5077827;28;19916;-34
2023/09/03 03:43:03;;;;;;;;;;;24.40;71.50;;;;;;5084519;28;19913;-34
2023/09/03 03:45:32;;;;;;;;;;;24.40;71.20;;;;;;5072890;28;19979;-34
2023/09/03 03:47:58;;;;;;;;;;;24.40;71.50;;;;;;5062299;28;19919;-34
2023/09/03 03:50:23;;;;;;;;;;;24.40;71.50;;;;;;5075713;28;19913;-33
2023/09/03 03:52:49;;;;;;;;;;;24.40;71.50;;;;;;5068358;28;19912;-34
2023/09/03 03:55:15;;;;;;;;;;;24.40;71.40;;;;;;5081366;28;20584;-34
2023/09/03 03:58:01;;;;;;;;;;;24.40;71.50;;;;;;5009067;28;19982;-34
2023/09/03 04:00:27;;;;;;;;;;;24.30;71.40;;;;;;5005611;28;19945;-34
2023/09/03 04:02:53;;;;;;;;;;;24.30;71.30;;;;;;5004972;28;19925;-33
2023/09/03 04:05:19;;;;;;;;;;;24.30;71.40;;;;;;5014008;28;19960;-33
2023/09/03 04:07:45;;;;;;;;;;;24.30;71.50;;;;;;5009766;28;19916;-33
2023/09/03 04:10:11;;;;;;;;;;;24.30;71.50;;;;;;5006363;28;20479;-34
2023/09/03 04:12:37;;;;;;;;;;;24.30;71.70;;;;;;5008946;28;20394;-34
2023/09/03 04:15:03;;;;;;;;;;;24.30;71.80;;;;;;4997177;28;20375;-34
2023/09/03 04:17:30;;;;;;;;;;;24.30;71.70;;;;;;5006524;28;19941;-34
2023/09/03 04:19:56;;;;;;;;;;;24.30;71.70;;;;;;5015692;28;20089;-33
2023/09/03 04:22:22;;;;;;;;;;;24.30;71.80;;;;;;5007801;28;19913;-34
2023/09/03 04:24:48;;;;;;;;;;;24.20;71.70;;;;;;5017915;28;19973;-34
2023/09/03 04:27:14;;;;;;;;;;;24.20;71.80;;;;;;5011854;28;19914;-34
2023/09/03 04:29:39;;;;;;;;;;;24.20;71.70;;;;;;5014420;28;19913;-34
2023/09/03 04:32:06;;;;;;;;;;;24.20;71.80;;;;;;5009014;28;19916;-34
2023/09/03 04:34:32;;;;;;;;;;;24.20;71.90;;;;;;5026450;28;20428;-34
2023/09/03 04:36:57;;;;;;;;;;;24.20;71.90;;;;;;5073953;28;19920;-34
2023/09/03 04:39:23;;;;;;;;;;;24.20;72.00;;;;;;5072141;28;20008;-34
2023/09/03 04:41:49;;;;;;;;;;;24.10;71.90;;;;;;5071464;28;19927;-34
2023/09/03 04:44:15;;;;;;;;;;;24.10;72.00;;;;;;5075547;28;19917;-34
2023/09/03 04:46:41;;;;;;;;;;;24.10;71.90;;;;;;5064302;28;19919;-34
2023/09/03 04:49:07;;;;;;;;;;;24.10;72.00;;;;;;5065786;28;19935;-34
2023/09/03 04:51:34;;;;;;;;;;;24.10;72.00;;;;;;5071100;28;19912;-34
2023/09/03 04:54:00;;;;;;;;;;;24.10;72.10;;;;;;5057831;28;19913;-34
2023/09/03 04:56:26;;;;;;;;;;;24.10;72.00;;;;;;5074386;28;19924;-33
2023/09/03 04:58:52;;;;;;;;;;;24.10;72.00;;;;;;5065884;28;19969;-34
2023/09/03 05:01:18;;;;;;;;;;;24.10;71.90;;;;;;5066945;28;19913;-34
2023/09/03 05:03:44;;;;;;;;;;;24.10;72.00;;;;;;5072092;28;19921;-34
2023/09/03 05:06:13;;;;;;;;;;;24.10;72.00;;;;;;5080701;28;19909;-34
2023/09/03 05:08:39;;;;;;;;;;;24.00;71.90;;;;;;5065499;28;19909;-34
2023/09/03 05:11:09;;;;;;;;;;;24.00;72.00;;;;;;5080058;28;19919;-34
2023/09/03 05:13:34;;;;;;;;;;;24.00;72.00;;;;;;5072498;28;19912;-34
2023/09/03 05:16:00;;;;;;;;;;;24.00;72.20;;;;;;5065539;28;20007;-34
2023/09/03 05:18:26;;;;;;;;;;;24.00;72.30;;;;;;5077757;28;19917;-34
2023/09/03 05:20:52;;;;;;;;;;;24.00;72.10;;;;;;5083802;28;19919;-34
2023/09/03 05:23:18;;;;;;;;;;;24.00;72.10;;;;;;5061108;28;19920;-33
2023/09/03 05:25:44;;;;;;;;;;;24.00;72.10;;;;;;5073233;28;19913;-33
2023/09/03 05:28:10;;;;;;;;;;;24.00;72.30;;;;;;5064545;28;19905;-34
2023/09/03 05:30:35;;;;;;;;;;;23.90;72.30;;;;;;5075844;28;19917;-34
2023/09/03 05:33:01;;;;;;;;;;;23.90;72.30;;;;;;5069807;28;19962;-33
2023/09/03 05:35:27;;;;;;;;;;;23.90;73.00;;;;;;5073008;28;19917;-33
2023/09/03 05:37:53;;;;;;;;;;;23.90;72.30;;;;;;5072489;28;19920;-33
2023/09/03 05:40:19;;;;;;;;;;;23.90;72.30;;;;;;5065894;28;19983;-33
2023/09/03 05:42:45;;;;;;;;;;;23.90;72.20;;;;;;5072489;28;19960;-33
2023/09/03 05:45:11;;;;;;;;;;;23.90;72.20;;;;;;5062778;28;19956;-33
2023/09/03 05:47:38;;;;;;;;;;;23.80;72.20;;;;;;5075974;28;19916;-33
2023/09/03 05:50:05;;;;;;;;;;;23.80;72.20;;;;;;5081845;28;19934;-33
2023/09/03 05:52:31;;;;;;;;;;;23.80;72.20;;;;;;5068049;28;19908;-33
2023/09/03 05:54:57;;;;;;;;;;;23.80;72.20;;;;;;5081809;28;19912;-36
2023/09/03 05:57:23;;;;;;;;;;;23.80;72.30;;;;;;5067853;28;19929;-33
2023/09/03 05:59:50;;;;;;;;;;;23.80;72.30;;;;;;5082368;28;19967;-33
2023/09/03 06:02:16;;;;;;;;;;;23.80;72.30;;;;;;5081460;28;20363;-33
2023/09/03 06:04:42;;;;;;;;;;;23.80;72.60;;;;;;5069913;28;19920;-34
2023/09/03 06:07:09;;;;;;;;;;;23.80;72.40;;;;;;5071675;28;19912;-33
2023/09/03 06:09:38;;;;;;;;;;;23.80;72.50;;;;;;5063017;28;19912;-34
2023/09/03 06:12:04;;;;;;;;;;;23.70;72.50;;;;;;5075210;28;19915;-33
2023/09/03 06:14:30;;;;;;;;;;;23.70;72.50;;;;;;5063029;28;19976;-33
2023/09/03 06:16:56;;;;;;;;;;;23.70;72.50;;;;;;5072754;28;19917;-34
2023/09/03 06:19:23;;;;;;;;;;;23.70;72.40;;;;;;5073337;28;19966;-33
2023/09/03 06:21:49;;;;;;;;;;;23.70;72.40;;;;;;5065104;28;19913;-34
2023/09/03 06:24:15;;;;;;;;;;;23.70;72.50;;;;;;5064626;28;19972;-34
2023/09/03 06:26:41;;;;;;;;;;;23.70;72.50;;;;;;5058894;28;19913;-33
2023/09/03 06:29:07;;;;;;;;;;;23.70;72.40;;;;;;5067544;28;19919;-33
2023/09/03 06:31:33;;;;;;;;;;;23.70;72.50;;;;;;5064966;28;19999;-33
2023/09/03 06:33:59;;;;;;;;;;;23.70;72.60;;;;;;5067490;28;19912;-34
2023/09/03 06:36:25;;;;;;;;;;;23.60;72.50;;;;;;5070912;28;19923;-33
2023/09/03 06:38:51;;;;;;;;;;;23.60;72.50;;;;;;5068968;28;19908;-33
2023/09/03 06:41:17;;;;;;;;;;;23.60;72.50;;;;;;5075282;28;19912;-34
2023/09/03 06:43:43;;;;;;;;;;;23.60;72.60;;;;;;5077171;28;19917;-34
2023/09/03 06:46:09;;;;;;;;;;;23.60;72.70;;;;;;5072491;28;20320;-34
2023/09/03 06:48:35;;;;;;;;;;;23.60;73.40;;;;;;5081190;28;19912;-34
2023/09/03 06:51:00;;;;;;;;;;;23.60;72.70;;;;;;5075468;28;19904;-34
2023/09/03 06:53:26;;;;;;;;;;;23.60;72.70;;;;;;5040543;28;19944;-34
2023/09/03 06:55:52;;;;;;;;;;;23.50;72.70;;;;;;5082221;28;19908;-34
2023/09/03 06:58:18;;;;;;;;;;;23.60;72.70;;;;;;5080364;28;19916;-34
2023/09/03 07:00:44;;;;;;;;;;;23.50;72.70;;;;;;5072738;28;19908;-34
2023/09/03 07:03:10;;;;;;;;;;;23.50;72.70;;;;;;5073719;28;19913;-34
2023/09/03 07:05:36;;;;;;;;;;;23.50;72.70;;;;;;5073324;28;19980;-33
2023/09/03 07:08:02;;;;;;;;;;;23.50;72.60;;;;;;5075295;28;19908;-33
2023/09/03 07:10:27;;;;;;;;;;;23.50;73.50;;;;;;5070778;28;19912;-34
2023/09/03 07:12:55;;;;;;;;;;;23.50;72.70;;;;;;5063958;28;20580;-33
2023/09/03 07:15:20;;;;;;;;;;;23.50;72.70;;;;;;5063470;28;19909;-34
2023/09/03 07:17:46;;;;;;;;;;;23.50;72.80;;;;;;5063952;28;19916;-34
2023/09/03 07:20:12;;;;;;;;;;;23.50;72.80;;;;;;5071253;28;19909;-34
2023/09/03 07:22:38;;;;;;;;;;;23.40;72.80;;;;;;5063466;28;19984;-34
2023/09/03 07:25:04;;;;;;;;;;;23.40;72.80;;;;;;5078371;28;19935;-33
2023/09/03 07:27:31;;;;;;;;;;;23.40;72.80;;;;;;5080219;28;20658;-33
2023/09/03 07:29:57;;;;;;;;;;;23.40;72.80;;;;;;5080984;28;19972;-35
2023/09/03 07:32:23;;;;;;;;;;;23.40;72.90;;;;;;5073376;28;19912;-33
2023/09/03 07:34:52;;;;;;;;;;;23.40;72.90;;;;;;5070068;28;19945;-33
2023/09/03 07:37:18;;;;;;;;;;;23.30;72.90;;;;;;5071212;28;19916;-34
2023/09/03 07:39:45;;;;;;;;;;;23.40;73.00;;;;;;5070634;28;19998;-33
2023/09/03 07:42:11;;;;;;;;;;;23.40;72.90;;;;;;5070280;28;19935;-34
2023/09/03 07:44:37;;;;;;;;;;;23.30;73.00;;;;;;5042061;28;20623;-34
2023/09/03 07:47:03;;;;;;;;;;;23.30;73.00;;;;;;5061798;28;19962;-34
2023/09/03 07:49:29;;;;;;;;;;;23.30;73.00;;;;;;5071015;28;19999;-34
2023/09/03 07:51:54;;;;;;;;;;;23.30;73.00;;;;;;5069034;28;19974;-34
2023/09/03 07:54:20;;;;;;;;;;;23.30;73.00;;;;;;5070669;28;19908;-34
2023/09/03 07:56:46;;;;;;;;;;;23.30;73.00;;;;;;5063922;28;20007;-34
2023/09/03 07:59:12;;;;;;;;;;;23.30;73.00;;;;;;5063785;28;19920;-34
2023/09/03 08:01:39;;;;;;;;;;;23.30;73.10;;;;;;5073823;28;19922;-34
2023/09/03 08:04:05;;;;;;;;;;;23.30;73.10;;;;;;5070627;28;19959;-34
2023/09/03 08:06:31;;;;;;;;;;;23.20;73.20;;;;;;5066082;28;19913;-34
2023/09/03 08:08:57;;;;;;;;;;;23.20;73.10;;;;;;5076901;28;19916;-33
2023/09/03 08:11:23;;;;;;;;;;;23.20;73.20;;;;;;5065224;28;19913;-34
2023/09/03 08:13:56;;;;;;;;;;;23.20;73.30;;;;;;5068761;28;19919;-33
2023/09/03 08:16:22;;;;;;;;;;;23.20;73.20;;;;;;5068269;28;19913;-34
2023/09/03 08:18:48;;;;;;;;;;;23.20;73.20;;;;;;5084136;28;19923;-34
2023/09/03 08:21:14;;;;;;;;;;;23.20;73.30;;;;;;5079506;28;19913;-34
2023/09/03 08:23:41;;;;;;;;;;;23.20;73.30;;;;;;5069847;28;19923;-34
2023/09/03 08:26:07;;;;;;;;;;;23.20;73.30;;;;;;5084290;28;19916;-34
2023/09/03 08:28:33;;;;;;;;;;;23.20;73.40;;;;;;5076286;28;19909;-34
2023/09/03 08:30:59;;;;;;;;;;;23.20;73.30;;;;;;5077961;28;19913;-34
2023/09/03 08:33:25;;;;;;;;;;;23.20;73.30;;;;;;5047273;28;19954;-34
2023/09/03 08:35:51;;;;;;;;;;;23.10;73.20;;;;;;5073495;28;19916;-34
2023/09/03 08:38:16;;;;;;;;;;;23.10;73.30;;;;;;5073237;28;19959;-34
2023/09/03 08:40:43;;;;;;;;;;;23.10;73.20;;;;;;5074292;28;19920;-34
2023/09/03 08:43:09;;;;;;;;;;;23.10;73.30;;;;;;5061915;28;19916;-34
2023/09/03 08:45:37;;;;;;;;;;;23.10;73.30;;;;;;5070196;28;20018;-34
2023/09/03 08:48:03;;;;;;;;;;;23.10;73.40;;;;;;5076306;28;19918;-34
2023/09/03 08:50:29;;;;;;;;;;;23.10;73.40;;;;;;5067885;28;19976;-34
2023/09/03 08:52:55;;;;;;;;;;;23.10;73.50;;;;;;5070176;28;20114;-34
2023/09/03 08:55:21;;;;;;;;;;;23.00;73.40;;;;;;5073288;28;19914;-34
2023/09/03 08:57:47;;;;;;;;;;;23.00;73.40;;;;;;5052234;28;19916;-34
2023/09/03 09:00:14;;;;;;;;;;;23.00;73.40;;;;;;5076393;28;19934;-34
2023/09/03 09:02:40;;;;;;;;;;;23.00;73.40;;;;;;5065891;28;19935;-34
2023/09/03 09:05:06;;;;;;;;;;;23.00;73.60;;;;;;5066135;28;20095;-34
2023/09/03 09:07:32;;;;;;;;;;;23.00;73.60;;;;;;5076018;28;19909;-34
2023/09/03 09:09:58;;;;;;;;;;;23.00;73.50;;;;;;5077746;28;19908;-34
2023/09/03 09:12:27;;;;;;;;;;;23.00;73.50;;;;;;5073950;28;19919;-34
2023/09/03 09:14:54;;;;;;;;;;;23.00;73.50;;;;;;5071715;28;19908;-34
2023/09/03 09:17:20;;;;;;;;;;;22.90;73.40;;;;;;5080045;28;19912;-34
2023/09/03 09:19:46;;;;;;;;;;;23.00;73.50;;;;;;5083030;28;19908;-34
2023/09/03 09:22:13;;;;;;;;;;;23.00;73.60;;;;;;5069344;28;19909;-34
2023/09/03 09:24:45;;;;;;;;;;;22.90;73.50;;;;;;5071872;28;19943;-34
2023/09/03 09:27:14;;;;;;;;;;;22.90;73.60;;;;;;5063914;28;20697;-34
2023/09/03 09:29:40;;;;;;;;;;;22.90;73.60;;;;;;5057846;28;19908;-34
2023/09/03 09:32:20;;;;;;;;;;;22.90;73.50;;;;;;5066007;28;19908;-34
2023/09/03 09:34:46;;;;;;;;;;;22.90;73.70;;;;;;5051727;28;19908;-34
2023/09/03 09:37:13;;;;;;;;;;;22.80;73.60;;;;;;5074903;28;19921;-34
2023/09/03 09:39:42;;;;;;;;;;;22.80;73.60;;;;;;5082783;28;19914;-34
2023/09/03 09:42:09;;;;;;;;;;;22.80;73.60;;;;;;5082855;28;19920;-34
2023/09/03 09:44:36;;;;;;;;;;;22.80;73.60;;;;;;5076200;28;19920;-34
2023/09/03 09:47:14;;;;;;;;;;;22.80;73.70;;;;;;5069913;28;20380;-34
2023/09/03 09:49:43;;;;;;;;;;;22.80;73.70;;;;;;5053558;28;19909;-35
2023/09/03 09:52:11;;;;;;;;;;;22.80;73.70;;;;;;5073475;28;19913;-34
2023/09/03 09:54:40;;;;;;;;;;;22.80;73.70;;;;;;5060118;28;19923;-34
2023/09/03 09:57:24;;;;;;;;;;;22.80;73.70;;;;;;5063575;28;19908;-34
2023/09/03 09:59:55;;;;;;;;;;;22.80;73.80;;;;;;5063748;28;20431;-35
2023/09/03 10:02:21;;;;;;;;;;;22.80;73.70;;;;;;5074217;28;19909;-34
2023/09/03 10:04:49;;;;;;;;;;;22.70;73.70;;;;;;5064660;28;19976;-34
2023/09/03 10:07:14;;;;;;;;;;;22.80;73.80;;;;;;5079525;28;19909;-34
2023/09/03 10:09:41;;;;;;;;;;;22.80;73.80;;;;;;5065021;28;19979;-34
2023/09/03 10:12:07;;;;;;;;;;;22.70;73.80;;;;;;5064316;28;19923;-34
2023/09/03 10:14:33;;;;;;;;;;;22.70;74.60;;;;;;5070519;28;19912;-34
2023/09/03 10:16:59;;;;;;;;;;;22.70;73.80;;;;;;5064772;28;19912;-34
2023/09/03 10:19:36;;;;;;;;;;;22.70;73.90;;;;;;5074195;28;19916;-34
2023/09/03 10:22:02;;;;;;;;;;;22.70;73.90;;;;;;5064192;28;19912;-34
2023/09/03 10:24:28;;;;;;;;;;;22.70;73.90;;;;;;5071224;28;19924;-34
2023/09/03 10:26:55;;;;;;;;;;;22.70;73.90;;;;;;5062773;28;20288;-34
2023/09/03 10:29:21;;;;;;;;;;;22.70;73.90;;;;;;5054553;28;20384;-34
2023/09/03 10:31:47;;;;;;;;;;;22.70;73.90;;;;;;5068593;28;19916;-34
2023/09/03 10:34:13;;;;;;;;;;;22.70;74.00;;;;;;5081356;28;19954;-34
2023/09/03 10:36:56;;;;;;;;;;;22.70;73.90;;;;;;5050087;28;19923;-34
2023/09/03 10:39:22;;;;;;;;;;;22.60;73.90;;;;;;5053713;28;19919;-34
2023/09/03 10:42:10;;;;;;;;;;;22.60;74.00;;;;;;5065417;28;19946;-34
2023/09/03 10:44:36;;;;;;;;;;;22.60;74.00;;;;;;5075428;28;19917;-34
2023/09/03 10:47:02;;;;;;;;;;;22.60;74.00;;;;;;5055349;28;19931;-34
2023/09/03 10:49:50;;;;;;;;;;;22.60;74.00;;;;;;5074166;28;19944;-34
2023/09/03 10:52:42;;;;;;;;;;;22.60;74.00;;;;;;5055151;28;19912;-34
2023/09/03 10:55:14;;;;;;;;;;;22.60;74.00;;;;;;5065645;28;19920;-34
2023/09/03 10:57:41;;;;;;;;;;;22.60;74.00;;;;;;5067803;28;19914;-34
2023/09/03 11:00:08;;;;;;;;;;;22.60;74.10;;;;;;5082002;28;19951;-34
2023/09/03 11:02:34;;;;;;;;;;;22.60;74.10;;;;;;5064489;28;19976;-34
2023/09/03 11:05:10;;;;;;;;;;;22.60;74.10;;;;;;5053074;28;19924;-34
2023/09/03 11:07:36;;;;;;;;;;;22.60;74.20;;;;;;5063082;28;19908;-34
2023/09/03 11:10:20;;;;;;;;;;;22.50;74.10;;;;;;5077449;28;19912;-34
2023/09/03 11:12:46;;;;;;;;;;;22.50;74.10;;;;;;5061956;28;19908;-34
2023/09/03 11:15:12;;;;;;;;;;;22.50;74.10;;;;;;5049032;28;19912;-34
2023/09/03 11:17:38;;;;;;;;;;;22.50;74.10;;;;;;5070655;28;19913;-34
2023/09/03 11:20:04;;;;;;;;;;;22.50;74.20;;;;;;5072011;28;19934;-34
2023/09/03 11:22:36;;;;;;;;;;;22.50;74.20;;;;;;5066699;28;19977;-34
2023/09/03 11:25:03;;;;;;;;;;;22.50;74.20;;;;;;5067565;28;19920;-34
2023/09/03 11:27:28;;;;;;;;;;;22.50;74.20;;;;;;5071124;28;19912;-33
2023/09/03 11:30:04;;;;;;;;;;;22.50;74.20;;;;;;5071310;28;19916;-34
2023/09/03 11:32:37;;;;;;;;;;;22.50;74.20;;;;;;5071203;28;19912;-34
2023/09/03 11:35:03;;;;;;;;;;;22.50;74.20;;;;;;5071062;28;19919;-34
2023/09/03 11:37:29;;;;;;;;;;;22.40;74.20;;;;;;5064792;28;19927;-34
2023/09/03 11:39:55;;;;;;;;;;;22.40;74.20;;;;;;5063822;28;20365;-34
2023/09/03 11:42:22;;;;;;;;;;;22.40;74.30;;;;;;5071694;28;19915;-34
2023/09/03 11:44:51;;;;;;;;;;;22.40;74.30;;;;;;5058382;28;19923;-34
2023/09/03 11:47:17;;;;;;;;;;;22.40;74.30;;;;;;5070769;28;19927;-34
2023/09/03 11:49:47;;;;;;;;;;;22.40;74.30;;;;;;5044510;28;19912;-34
2023/09/03 11:52:13;;;;;;;;;;;22.40;74.30;;;;;;5064865;28;19913;-34
2023/09/03 11:54:39;;;;;;;;;;;22.40;74.30;;;;;;5081245;28;19971;-34
2023/09/03 11:57:05;;;;;;;;;;;22.40;74.30;;;;;;5074122;28;19908;-34
2023/09/03 11:59:31;;;;;;;;;;;22.40;74.30;;;;;;5073944;28;19913;-34
2023/09/03 12:01:57;;;;;;;;;;;22.40;74.30;;;;;;5074293;28;19920;-34
2023/09/03 12:04:23;;;;;;;;;;;22.30;74.30;;;;;;5066985;28;19927;-34
2023/09/03 12:06:49;;;;;;;;;;;22.30;74.40;;;;;;5077225;28;19931;-34
2023/09/03 12:09:18;;;;;;;;;;;22.30;74.30;;;;;;5069590;28;19909;-33
2023/09/03 12:11:43;;;;;;;;;;;22.30;74.40;;;;;;5052804;28;19912;-34
2023/09/03 12:14:10;;;;;;;;;;;22.30;74.50;;;;;;5073011;28;19909;-34
2023/09/03 12:16:45;;;;;;;;;;;22.30;74.40;;;;;;5074781;28;19912;-34
2023/09/03 12:19:11;;;;;;;;;;;22.30;74.60;;;;;;5052832;28;20321;-34
2023/09/03 12:21:38;;;;;;;;;;;22.30;74.40;;;;;;5067708;28;19917;-34
2023/09/03 12:24:05;;;;;;;;;;;22.30;74.50;;;;;;5074558;28;19923;-34
2023/09/03 12:26:31;;;;;;;;;;;22.30;74.50;;;;;;5076519;28;19915;-34
2023/09/03 12:28:58;;;;;;;;;;;22.30;74.50;;;;;;5070967;28;20011;-33
2023/09/03 12:31:37;;;;;;;;;;;22.30;74.50;;;;;;5079114;28;19908;-34
2023/09/03 12:34:03;;;;;;;;;;;22.30;74.60;;;;;;5078005;28;19916;-34
2023/09/03 12:36:31;;;;;;;;;;;22.30;74.60;;;;;;5048794;28;19920;-34
2023/09/03 12:38:57;;;;;;;;;;;22.20;74.50;;;;;;5073518;28;20787;-34
2023/09/03 12:41:24;;;;;;;;;;;22.20;74.50;;;;;;5081453;28;19912;-34
2023/09/03 12:43:50;;;;;;;;;;;22.20;74.40;;;;;;5055014;28;19912;-34
2023/09/03 12:46:16;;;;;;;;;;;22.20;74.40;;;;;;5067951;28;19909;-34
2023/09/03 12:48:43;;;;;;;;;;;22.20;74.50;;;;;;5074806;28;19955;-34
2023/09/03 12:51:10;;;;;;;;;;;22.20;74.50;;;;;;5073263;28;19915;-34
2023/09/03 12:53:39;;;;;;;;;;;22.20;74.50;;;;;;5069599;28;19915;-34
2023/09/03 12:56:06;;;;;;;;;;;22.20;74.50;;;;;;5076679;28;19912;-34
2023/09/03 12:58:31;;;;;;;;;;;22.20;74.60;;;;;;5067632;28;19912;-34
2023/09/03 13:00:57;;;;;;;;;;;22.20;74.60;;;;;;5078248;28;20342;-34
2023/09/03 13:03:23;;;;;;;;;;;22.20;74.60;;;;;;5065451;28;19916;-35
2023/09/03 13:05:49;;;;;;;;;;;22.20;74.60;;;;;;5070764;28;19942;-34
2023/09/03 13:08:15;;;;;;;;;;;22.20;74.70;;;;;;5068346;28;19948;-34
2023/09/03 13:10:42;;;;;;;;;;;22.20;74.70;;;;;;5080228;28;20262;-34
2023/09/03 13:13:09;;;;;;;;;;;22.20;74.80;;;;;;5065939;28;19969;-36
2023/09/03 13:15:34;;;;;;;;;;;22.20;74.80;;;;;;5063680;28;19964;-34
2023/09/03 13:18:00;;;;;;;;;;;22.20;74.90;;;;;;5072081;28;19931;-34
2023/09/03 13:20:26;;;;;;;;;;;22.20;74.90;;;;;;5074199;28;19917;-34
2023/09/03 13:22:52;;;;;;;;;;;22.20;75.00;;;;;;5066156;28;19932;-34
2023/09/03 13:25:18;;;;;;;;;;;22.20;75.10;;;;;;5072695;28;20379;-34
2023/09/03 13:27:44;;;;;;;;;;;22.20;75.10;;;;;;5065658;28;20269;-34
2023/09/03 13:30:10;;;;;;;;;;;22.20;75.20;;;;;;5079240;28;19956;-34
2023/09/03 13:32:36;;;;;;;;;;;22.20;75.10;;;;;;5081962;28;19915;-34
2023/09/03 13:35:02;;;;;;;;;;;22.20;75.00;;;;;;5068787;28;19912;-34
2023/09/03 13:37:28;;;;;;;;;;;22.20;75.20;;;;;;5075263;28;19920;-34
2023/09/03 13:39:54;;;;;;;;;;;22.20;75.00;;;;;;5075809;28;20376;-35
2023/09/03 13:42:19;;;;;;;;;;;22.20;75.10;;;;;;5067754;28;19909;-34
2023/09/03 13:44:45;;;;;;;;;;;22.20;75.20;;;;;;5065585;28;19991;-34
2023/09/03 13:47:11;;;;;;;;;;;22.20;75.20;;;;;;5062518;28;19913;-34
2023/09/03 13:49:37;;;;;;;;;;;22.20;75.10;;;;;;5073394;28;19948;-34
2023/09/03 13:52:03;;;;;;;;;;;22.20;75.10;;;;;;5072674;28;20350;-35
2023/09/03 13:54:29;;;;;;;;;;;22.30;75.20;;;;;;5072703;28;19917;-34
2023/09/03 13:56:55;;;;;;;;;;;22.20;75.30;;;;;;5065445;28;19908;-34
2023/09/03 13:59:21;;;;;;;;;;;22.30;75.30;;;;;;5064900;28;19912;-34
2023/09/03 14:01:46;;;;;;;;;;;22.30;75.30;;;;;;5069552;28;20015;-34
2023/09/03 14:04:12;;;;;;;;;;;22.30;75.30;;;;;;5078079;28;19920;-34
2023/09/03 14:06:38;;;;;;;;;;;22.30;75.30;;;;;;5065130;28;19912;-34
2023/09/03 14:09:04;;;;;;;;;;;22.30;75.30;;;;;;5071801;28;19955;-34
2023/09/03 14:11:30;;;;;;;;;;;22.30;75.30;;;;;;5073818;28;19912;-34
2023/09/03 14:13:56;;;;;;;;;;;22.30;75.20;;;;;;5075166;28;20110;-34
2023/09/03 14:16:22;;;;;;;;;;;22.30;75.10;;;;;;5065049;28;20494;-34